sensor_id;sensor_type;location;lat;lon;timestamp;pressure;altitude;pressure_sealevel;temperature;humidity
74621;BME280;64861;47.546;19.254;2023-05-23T13:04:25;98712.63;;;24.75;47.95
74621;BME280;64861;47.546;19.254;2023-05-23T13:06:50;98713.03;;;24.65;48.03
74621;BME280;64861;47.546;19.254;2023-05-23T13:09:16;98715.31;;;24.75;47.64
74621;BME280;64861;47.546;19.254;2023-05-23T13:11:42;98705.84;;;24.79;46.95
74621;BME280;64861;47.546;19.254;2023-05-23T13:14:08;98708.09;;;24.69;47.88
74621;BME280;64861;47.546;19.254;2023-05-23T13:16:33;98696.78;;;24.73;47.48
74621;BME280;64861;47.546;19.254;2023-05-23T13:19:00;98706.25;;;24.76;47.38
74621;BME280;64861;47.546;19.254;2023-05-23T13:21:25;98695.13;;;24.66;48.26
74621;BME280;64861;47.546;19.254;2023-05-23T13:23:51;98696.16;;;24.51;49.08
74621;BME280;64861;47.546;19.254;2023-05-23T13:26:17;98697.19;;;24.50;49.17
74621;BME280;64861;47.546;19.254;2023-05-23T13:28:42;98702.56;;;24.70;48.77
74621;BME280;64861;47.546;19.254;2023-05-23T13:31:08;98695.75;;;24.61;49.00
74621;BME280;64861;47.546;19.254;2023-05-23T13:33:33;98693.25;;;24.53;49.16
74621;BME280;64861;47.546;19.254;2023-05-23T13:35:59;98695.13;;;24.66;48.32
74621;BME280;64861;47.546;19.254;2023-05-23T13:38:24;98697.41;;;24.75;47.72
74621;BME280;64861;47.546;19.254;2023-05-23T13:40:51;98688.38;;;24.83;46.31
74621;BME280;64861;47.546;19.254;2023-05-23T13:43:17;98687.78;;;24.81;46.61
74621;BME280;64861;47.546;19.254;2023-05-23T13:45:43;98694.13;;;24.87;46.60
74621;BME280;64861;47.546;19.254;2023-05-23T13:48:08;98689.81;;;24.85;46.52
74621;BME280;64861;47.546;19.254;2023-05-23T13:50:33;98693.53;;;24.91;46.69
74621;BME280;64861;47.546;19.254;2023-05-23T13:52:59;98683.88;;;24.90;46.87
74621;BME280;64861;47.546;19.254;2023-05-23T13:55:25;98682.63;;;24.79;47.61
74621;BME280;64861;47.546;19.254;2023-05-23T13:57:51;98686.94;;;24.74;47.37
74621;BME280;64861;47.546;19.254;2023-05-23T14:00:17;98685.91;;;24.75;47.15
74621;BME280;64861;47.546;19.254;2023-05-23T14:02:42;98691.00;;;24.63;48.23
74621;BME280;64861;47.546;19.254;2023-05-23T14:05:08;98687.13;;;24.66;47.10
74621;BME280;64861;47.546;19.254;2023-05-23T14:07:33;98677.25;;;24.66;47.80
74621;BME280;64861;47.546;19.254;2023-05-23T14:09:59;98680.72;;;24.53;48.48
74621;BME280;64861;47.546;19.254;2023-05-23T14:12:24;98678.50;;;24.50;49.09
74621;BME280;64861;47.546;19.254;2023-05-23T14:14:51;98685.44;;;24.45;49.20
74621;BME280;64861;47.546;19.254;2023-05-23T14:17:17;98682.91;;;24.36;49.24
74621;BME280;64861;47.546;19.254;2023-05-23T14:19:43;98682.09;;;24.29;49.39
74621;BME280;64861;47.546;19.254;2023-05-23T14:22:09;98676.94;;;24.21;49.83
74621;BME280;64861;47.546;19.254;2023-05-23T14:24:34;98687.78;;;24.13;50.20
74621;BME280;64861;47.546;19.254;2023-05-23T14:27:00;98691.25;;;24.07;50.21
74621;BME280;64861;47.546;19.254;2023-05-23T14:29:26;98699.88;;;24.02;50.50
74621;BME280;64861;47.546;19.254;2023-05-23T14:31:52;98686.72;;;24.01;50.53
74621;BME280;64861;47.546;19.254;2023-05-23T14:34:17;98686.72;;;24.01;50.79
74621;BME280;64861;47.546;19.254;2023-05-23T14:36:43;98685.47;;;23.97;50.80
74621;BME280;64861;47.546;19.254;2023-05-23T14:39:08;98680.88;;;23.84;51.19
74621;BME280;64861;47.546;19.254;2023-05-23T14:41:34;98696.94;;;23.56;54.84
74621;BME280;64861;47.546;19.254;2023-05-23T14:44:01;98705.72;;;23.78;54.85
74621;BME280;64861;47.546;19.254;2023-05-23T14:46:27;98696.72;;;23.85;55.07
74621;BME280;64861;47.546;19.254;2023-05-23T14:48:52;98698.34;;;23.86;55.45
74621;BME280;64861;47.546;19.254;2023-05-23T14:53:53;98701.06;;;24.00;54.42
74621;BME280;64861;47.546;19.254;2023-05-23T14:56:19;98699.88;;;24.02;53.93
74621;BME280;64861;47.546;19.254;2023-05-23T14:58:44;98699.88;;;24.09;53.70
74621;BME280;64861;47.546;19.254;2023-05-23T15:01:11;98691.47;;;24.12;53.87
74621;BME280;64861;47.546;19.254;2023-05-23T15:03:37;98691.91;;;24.15;53.88
74621;BME280;64861;47.546;19.254;2023-05-23T15:06:03;98716.97;;;24.14;53.90
74621;BME280;64861;47.546;19.254;2023-05-23T15:08:30;98710.34;;;24.10;54.35
74621;BME280;64861;47.546;19.254;2023-05-23T15:10:56;98708.09;;;24.01;54.61
74621;BME280;64861;47.546;19.254;2023-05-23T15:13:21;98715.41;;;23.92;54.88
74621;BME280;64861;47.546;19.254;2023-05-23T15:15:47;98704.31;;;23.88;55.57
74621;BME280;64861;47.546;19.254;2023-05-23T15:18:13;98697.56;;;23.58;56.46
74621;BME280;64861;47.546;19.254;2023-05-23T15:20:39;98709.66;;;23.26;57.55
74621;BME280;64861;47.546;19.254;2023-05-23T15:23:04;98702.63;;;23.18;58.34
74621;BME280;64861;47.546;19.254;2023-05-23T15:25:31;98708.97;;;23.17;57.79
74621;BME280;64861;47.546;19.254;2023-05-23T15:27:56;98700.00;;;23.25;57.10
74621;BME280;64861;47.546;19.254;2023-05-23T15:30:22;98708.72;;;23.40;56.78
74621;BME280;64861;47.546;19.254;2023-05-23T15:32:47;98699.13;;;23.45;56.82
74621;BME280;64861;47.546;19.254;2023-05-23T15:35:13;98698.53;;;23.50;56.90
74621;BME280;64861;47.546;19.254;2023-05-23T15:37:40;98691.34;;;23.51;57.06
74621;BME280;64861;47.546;19.254;2023-05-23T15:40:05;98690.72;;;23.49;56.86
74621;BME280;64861;47.546;19.254;2023-05-23T15:42:31;98696.06;;;23.49;56.53
74621;BME280;64861;47.546;19.254;2023-05-23T15:44:56;98701.63;;;23.54;57.66
74621;BME280;64861;47.546;19.254;2023-05-23T15:47:22;98696.16;;;23.62;59.31
74621;BME280;64861;47.546;19.254;2023-05-23T15:49:48;98684.06;;;23.66;59.88
74621;BME280;64861;47.546;19.254;2023-05-23T15:52:13;98689.22;;;23.67;60.81
74621;BME280;64861;47.546;19.254;2023-05-23T15:54:39;98688.34;;;23.67;61.58
74621;BME280;64861;47.546;19.254;2023-05-23T15:57:04;98674.41;;;23.65;60.94
74621;BME280;64861;47.546;19.254;2023-05-23T15:59:29;98681.38;;;23.66;60.59
74621;BME280;64861;47.546;19.254;2023-05-23T16:01:58;98686.09;;;23.64;61.50
74621;BME280;64861;47.546;19.254;2023-05-23T16:04:23;98683.00;;;23.60;62.55
74621;BME280;64861;47.546;19.254;2023-05-23T16:06:49;98692.22;;;23.58;61.53
74621;BME280;64861;47.546;19.254;2023-05-23T16:09:15;98691.59;;;23.56;61.83
74621;BME280;64861;47.546;19.254;2023-05-23T16:11:40;98694.25;;;23.56;62.10
74621;BME280;64861;47.546;19.254;2023-05-23T16:14:06;98687.69;;;23.52;63.22
74621;BME280;64861;47.546;19.254;2023-05-23T16:16:31;98683.56;;;23.49;62.96
74621;BME280;64861;47.546;19.254;2023-05-23T16:18:57;98685.56;;;23.47;63.21
74621;BME280;64861;47.546;19.254;2023-05-23T16:21:22;98691.72;;;23.48;63.20
74621;BME280;64861;47.546;19.254;2023-05-23T16:23:48;98683.94;;;23.46;63.76
74621;BME280;64861;47.546;19.254;2023-05-23T16:26:14;98685.16;;;23.43;64.11
74621;BME280;64861;47.546;19.254;2023-05-23T16:28:40;98698.47;;;23.43;63.84
74621;BME280;64861;47.546;19.254;2023-05-23T16:31:17;98677.16;;;23.43;63.64
74621;BME280;64861;47.546;19.254;2023-05-23T16:33:43;98673.88;;;23.41;63.81
74621;BME280;64861;47.546;19.254;2023-05-23T16:36:09;98666.06;;;23.40;64.06
74621;BME280;64861;47.546;19.254;2023-05-23T16:38:34;98671.81;;;23.43;63.78
74621;BME280;64861;47.546;19.254;2023-05-23T16:41:00;98667.13;;;23.45;63.91
74621;BME280;64861;47.546;19.254;2023-05-23T16:43:25;98665.91;;;23.48;63.23
74621;BME280;64861;47.546;19.254;2023-05-23T16:45:51;98665.69;;;23.50;63.42
74621;BME280;64861;47.546;19.254;2023-05-23T16:48:17;98680.88;;;23.49;63.92
74621;BME280;64861;47.546;19.254;2023-05-23T16:50:44;98682.91;;;23.47;63.95
74621;BME280;64861;47.546;19.254;2023-05-23T16:53:09;98683.72;;;23.48;63.98
74621;BME280;64861;47.546;19.254;2023-05-23T16:55:35;98685.56;;;23.47;63.66
74621;BME280;64861;47.546;19.254;2023-05-23T16:58:00;98685.56;;;23.47;63.74
74621;BME280;64861;47.546;19.254;2023-05-23T17:00:26;98679.44;;;23.47;63.85
74621;BME280;64861;47.546;19.254;2023-05-23T17:02:51;98672.25;;;23.47;63.85
74621;BME280;64861;47.546;19.254;2023-05-23T17:05:17;98671.44;;;23.47;63.43
74621;BME280;64861;47.546;19.254;2023-05-23T17:07:42;98685.56;;;23.47;63.66
74621;BME280;64861;47.546;19.254;2023-05-23T17:10:08;98692.75;;;23.47;64.04
74621;BME280;64861;47.546;19.254;2023-05-23T17:12:34;98690.31;;;23.45;63.93
74621;BME280;64861;47.546;19.254;2023-05-23T17:15:00;98701.97;;;23.44;64.04
74621;BME280;64861;47.546;19.254;2023-05-23T17:17:25;98696.84;;;23.42;63.87
74621;BME280;64861;47.546;19.254;2023-05-23T17:19:51;98702.34;;;23.41;63.81
74621;BME280;64861;47.546;19.254;2023-05-23T17:22:16;98707.91;;;23.39;64.04
74621;BME280;64861;47.546;19.254;2023-05-23T17:24:42;98706.25;;;23.38;63.87
74621;BME280;64861;47.546;19.254;2023-05-23T17:27:08;98714.66;;;23.35;64.32
74621;BME280;64861;47.546;19.254;2023-05-23T17:29:33;98744.78;;;23.36;64.14
74621;BME280;64861;47.546;19.254;2023-05-23T17:31:59;98797.31;;;23.35;64.55
74621;BME280;64861;47.546;19.254;2023-05-23T17:34:24;98813.31;;;23.35;64.41
74621;BME280;64861;47.546;19.254;2023-05-23T17:36:50;98807.97;;;23.35;64.55
74621;BME280;64861;47.546;19.254;2023-05-23T17:39:16;98817.81;;;23.35;64.09
74621;BME280;64861;47.546;19.254;2023-05-23T17:41:42;98822.28;;;23.34;64.41
74621;BME280;64861;47.546;19.254;2023-05-23T17:44:07;98823.69;;;23.30;64.28
74621;BME280;64861;47.546;19.254;2023-05-23T17:46:33;98827.00;;;23.32;64.25
74621;BME280;64861;47.546;19.254;2023-05-23T17:48:59;98833.38;;;23.31;64.20
74621;BME280;64861;47.546;19.254;2023-05-23T17:51:24;98837.69;;;23.32;64.01
74621;BME280;64861;47.546;19.254;2023-05-23T17:53:50;98842.19;;;23.32;64.40
74621;BME280;64861;47.546;19.254;2023-05-23T17:56:18;98841.16;;;23.33;64.41
74621;BME280;64861;47.546;19.254;2023-05-23T17:58:44;98851.81;;;23.33;64.27
74621;BME280;64861;47.546;19.254;2023-05-23T18:01:09;98846.88;;;23.30;64.26
74621;BME280;64861;47.546;19.254;2023-05-23T18:03:36;98854.06;;;23.29;64.75
74621;BME280;64861;47.546;19.254;2023-05-23T18:06:03;98865.09;;;23.26;64.01
74621;BME280;64861;47.546;19.254;2023-05-23T18:08:29;98870.22;;;23.28;64.91
74621;BME280;64861;47.546;19.254;2023-05-23T18:10:54;98870.44;;;23.26;64.78
74621;BME280;64861;47.546;19.254;2023-05-23T18:13:20;98876.59;;;23.27;65.42
74621;BME280;64861;47.546;19.254;2023-05-23T18:15:46;98868.78;;;23.25;65.40
74621;BME280;64861;47.546;19.254;2023-05-23T18:18:11;98866.13;;;23.25;64.57
74621;BME280;64861;47.546;19.254;2023-05-23T18:20:37;98862.81;;;23.23;65.31
74621;BME280;64861;47.546;19.254;2023-05-23T18:23:02;98860.97;;;23.24;65.61
74621;BME280;64861;47.546;19.254;2023-05-23T18:25:28;98862.16;;;23.21;66.06
74621;BME280;64861;47.546;19.254;2023-05-23T18:27:56;98861.53;;;23.19;66.19
74621;BME280;64861;47.546;19.254;2023-05-23T18:30:22;98871.38;;;23.18;66.84
74621;BME280;64861;47.546;19.254;2023-05-23T18:32:47;98871.56;;;23.17;66.92
74621;BME280;64861;47.546;19.254;2023-05-23T18:35:13;98878.56;;;23.18;65.54
74621;BME280;64861;47.546;19.254;2023-05-23T18:37:38;98878.56;;;23.18;66.28
74621;BME280;64861;47.546;19.254;2023-05-23T18:40:05;98899.88;;;23.18;66.67
74621;BME280;64861;47.546;19.254;2023-05-23T18:42:31;98909.91;;;23.16;66.81
74621;BME280;64861;47.546;19.254;2023-05-23T18:44:56;98917.25;;;23.14;66.94
74621;BME280;64861;47.546;19.254;2023-05-23T18:47:22;98921.59;;;23.15;66.95
74621;BME280;64861;47.546;19.254;2023-05-23T18:49:48;98918.28;;;23.13;67.14
74621;BME280;64861;47.546;19.254;2023-05-23T18:52:14;98923.59;;;23.13;67.15
74621;BME280;64861;47.546;19.254;2023-05-23T18:54:40;98923.81;;;23.11;66.84
74621;BME280;64861;47.546;19.254;2023-05-23T18:57:06;98922.13;;;23.10;67.05
74621;BME280;64861;47.546;19.254;2023-05-23T18:59:32;98928.28;;;23.11;67.06
74621;BME280;64861;47.546;19.254;2023-05-23T19:01:57;98921.50;;;23.08;66.87
74621;BME280;64861;47.546;19.254;2023-05-23T19:04:27;98925.16;;;23.07;67.07
74621;BME280;64861;47.546;19.254;2023-05-23T19:06:53;98929.69;;;23.07;66.90
74621;BME280;64861;47.546;19.254;2023-05-23T19:09:18;98935.00;;;23.07;66.88
74621;BME280;64861;47.546;19.254;2023-05-23T19:11:44;98936.03;;;23.06;66.72
74621;BME280;64861;47.546;19.254;2023-05-23T19:14:10;98935.22;;;23.05;66.73
74621;BME280;64861;47.546;19.254;2023-05-23T19:16:36;98949.53;;;23.04;66.65
74621;BME280;64861;47.546;19.254;2023-05-23T19:19:02;98953.03;;;23.05;66.73
74621;BME280;64861;47.546;19.254;2023-05-23T19:21:28;98957.72;;;23.03;66.78
74621;BME280;64861;47.546;19.254;2023-05-23T19:23:54;98961.22;;;23.03;66.78
74621;BME280;64861;47.546;19.254;2023-05-23T19:26:19;98949.72;;;23.03;66.49
74621;BME280;64861;47.546;19.254;2023-05-23T19:28:45;98939.25;;;23.01;66.35
74621;BME280;64861;47.546;19.254;2023-05-23T19:31:10;98931.06;;;23.03;66.59
74621;BME280;64861;47.546;19.254;2023-05-23T19:33:36;98936.56;;;23.01;66.83
74621;BME280;64861;47.546;19.254;2023-05-23T19:36:03;98932.91;;;23.02;66.50
74621;BME280;64861;47.546;19.254;2023-05-23T19:38:28;98929.22;;;23.03;66.38
74621;BME280;64861;47.546;19.254;2023-05-23T19:40:54;98916.94;;;23.02;66.67
74621;BME280;64861;47.546;19.254;2023-05-23T19:43:19;98902.94;;;23.00;67.00
74621;BME280;64861;47.546;19.254;2023-05-23T19:45:45;98906.63;;;22.99;66.43
74621;BME280;64861;47.546;19.254;2023-05-23T19:48:10;98907.47;;;23.00;66.66
74621;BME280;64861;47.546;19.254;2023-05-23T19:50:36;98909.47;;;22.97;66.73
74621;BME280;64861;47.546;19.254;2023-05-23T19:53:03;98909.47;;;22.97;66.52
74621;BME280;64861;47.546;19.254;2023-05-23T19:55:28;98904.34;;;22.96;66.66
74621;BME280;64861;47.546;19.254;2023-05-23T19:57:54;98894.72;;;22.95;66.63
74621;BME280;64861;47.546;19.254;2023-05-23T20:00:19;98894.88;;;22.93;66.76
74621;BME280;64861;47.546;19.254;2023-05-23T20:02:45;98886.88;;;22.93;66.87
74621;BME280;64861;47.546;19.254;2023-05-23T20:05:11;98866.38;;;22.94;66.40
74621;BME280;64861;47.546;19.254;2023-05-23T20:07:37;98860.41;;;22.92;66.56
74621;BME280;64861;47.546;19.254;2023-05-23T20:10:04;98862.09;;;22.93;66.51
74621;BME280;64861;47.546;19.254;2023-05-23T20:12:30;98866.94;;;22.89;66.49
74621;BME280;64861;47.546;19.254;2023-05-23T20:14:55;98873.09;;;22.90;66.63
74621;BME280;64861;47.546;19.254;2023-05-23T20:17:22;98865.91;;;22.90;66.49
74621;BME280;64861;47.546;19.254;2023-05-23T20:19:47;98868.94;;;22.87;66.61
74621;BME280;64861;47.546;19.254;2023-05-23T20:22:13;98863.44;;;22.89;66.44
74621;BME280;64861;47.546;19.254;2023-05-23T20:24:39;98873.28;;;22.88;66.38
74621;BME280;64861;47.546;19.254;2023-05-23T20:27:06;98878.63;;;22.88;66.41
74621;BME280;64861;47.546;19.254;2023-05-23T20:29:31;98875.31;;;22.86;66.72
74621;BME280;64861;47.546;19.254;2023-05-23T20:31:59;98874.47;;;22.86;66.58
74621;BME280;64861;47.546;19.254;2023-05-23T20:34:25;98859.09;;;22.88;66.36
74621;BME280;64861;47.546;19.254;2023-05-23T20:36:51;98855.81;;;22.86;66.54
74621;BME280;64861;47.546;19.254;2023-05-23T20:39:17;98863.63;;;22.87;66.53
74621;BME280;64861;47.546;19.254;2023-05-23T20:41:42;98859.50;;;22.85;66.60
74621;BME280;64861;47.546;19.254;2023-05-23T20:44:10;98866.66;;;22.84;66.42
74621;BME280;64861;47.546;19.254;2023-05-23T20:46:36;98867.50;;;22.85;66.63
74621;BME280;64861;47.546;19.254;2023-05-23T20:49:05;98874.03;;;22.82;66.57
74621;BME280;64861;47.546;19.254;2023-05-23T20:51:30;98881.81;;;22.84;66.65
74621;BME280;64861;47.546;19.254;2023-05-23T20:53:57;98883.50;;;22.85;66.21
74621;BME280;64861;47.546;19.254;2023-05-23T20:56:23;98867.69;;;22.83;66.19
74621;BME280;64861;47.546;19.254;2023-05-23T20:58:48;98859.69;;;22.83;66.59
74621;BME280;64861;47.546;19.254;2023-05-23T21:01:14;98855.38;;;22.82;66.72
74621;BME280;64861;47.546;19.254;2023-05-23T21:03:40;98847.56;;;22.81;66.50
74621;BME280;64861;47.546;19.254;2023-05-23T21:06:06;98848.78;;;22.78;66.50
74621;BME280;64861;47.546;19.254;2023-05-23T21:08:31;98854.72;;;22.80;66.16
74621;BME280;64861;47.546;19.254;2023-05-23T21:10:56;98869.06;;;22.79;66.45
74621;BME280;64861;47.546;19.254;2023-05-23T21:13:22;98891.41;;;22.78;66.83
74621;BME280;64861;47.546;19.254;2023-05-23T21:15:47;98908.22;;;22.79;66.42
74621;BME280;64861;47.546;19.254;2023-05-23T21:18:13;98915.38;;;22.78;66.56
74621;BME280;64861;47.546;19.254;2023-05-23T21:20:38;98919.03;;;22.77;66.69
74621;BME280;64861;47.546;19.254;2023-05-23T21:23:04;98924.56;;;22.75;66.71
74621;BME280;64861;47.546;19.254;2023-05-23T21:25:30;98919.25;;;22.75;66.67
74621;BME280;64861;47.546;19.254;2023-05-23T21:27:55;98924.56;;;22.75;66.78
74621;BME280;64861;47.546;19.254;2023-05-23T21:30:21;98930.72;;;22.76;66.85
74621;BME280;64861;47.546;19.254;2023-05-23T21:32:46;98933.53;;;22.74;66.59
74621;BME280;64861;47.546;19.254;2023-05-23T21:35:12;98948.72;;;22.74;66.83
74621;BME280;64861;47.546;19.254;2023-05-23T21:37:37;98946.88;;;22.74;66.95
74621;BME280;64861;47.546;19.254;2023-05-23T21:40:03;98946.25;;;22.72;66.63
74621;BME280;64861;47.546;19.254;2023-05-23T21:42:29;98943.38;;;22.74;66.75
74621;BME280;64861;47.546;19.254;2023-05-23T21:44:55;98946.25;;;22.72;66.72
74621;BME280;64861;47.546;19.254;2023-05-23T21:47:20;98951.56;;;22.72;66.85
74621;BME280;64861;47.546;19.254;2023-05-23T21:49:48;98964.06;;;22.72;66.85
74621;BME280;64861;47.546;19.254;2023-05-23T21:52:13;98973.06;;;22.71;66.87
74621;BME280;64861;47.546;19.254;2023-05-23T21:54:39;98975.09;;;22.69;66.84
74621;BME280;64861;47.546;19.254;2023-05-23T21:57:04;98980.22;;;22.70;66.53
74621;BME280;64861;47.546;19.254;2023-05-23T21:59:30;98976.72;;;22.70;66.64
74621;BME280;64861;47.546;19.254;2023-05-23T22:01:55;98976.72;;;22.70;66.85
74621;BME280;64861;47.546;19.254;2023-05-23T22:04:20;98976.72;;;22.70;66.63
74621;BME280;64861;47.546;19.254;2023-05-23T22:06:46;98976.09;;;22.68;66.60
74621;BME280;64861;47.546;19.254;2023-05-23T22:09:12;98977.91;;;22.67;66.54
74621;BME280;64861;47.546;19.254;2023-05-23T22:11:40;98984.06;;;22.68;66.60
74621;BME280;64861;47.546;19.254;2023-05-23T22:14:05;98985.91;;;22.67;66.57
74621;BME280;64861;47.546;19.254;2023-05-23T22:16:31;98982.44;;;22.67;66.70
74621;BME280;64861;47.546;19.254;2023-05-23T22:18:57;98986.72;;;22.68;66.33
74621;BME280;64861;47.546;19.254;2023-05-23T22:21:26;98987.94;;;22.65;66.68
74621;BME280;64861;47.546;19.254;2023-05-23T22:23:52;98986.09;;;22.66;66.66
74621;BME280;64861;47.546;19.254;2023-05-23T22:26:18;98986.09;;;22.66;66.69
74621;BME280;64861;47.546;19.254;2023-05-23T22:28:45;98986.28;;;22.64;66.65
74621;BME280;64861;47.546;19.254;2023-05-23T22:31:11;98981.78;;;22.65;66.55
74621;BME280;64861;47.546;19.254;2023-05-23T22:33:38;98977.47;;;22.64;66.71
74621;BME280;64861;47.546;19.254;2023-05-23T22:36:04;98972.34;;;22.62;66.58
74621;BME280;64861;47.546;19.254;2023-05-23T22:40:56;98974.16;;;22.62;66.53
74621;BME280;64861;47.546;19.254;2023-05-23T22:43:22;98976.84;;;22.62;66.54
74621;BME280;64861;47.546;19.254;2023-05-23T22:45:47;98978.66;;;22.61;66.14
74621;BME280;64861;47.546;19.254;2023-05-23T22:48:15;98978.84;;;22.60;66.37
74621;BME280;64861;47.546;19.254;2023-05-23T22:50:42;98974.53;;;22.59;66.34
74621;BME280;64861;47.546;19.254;2023-05-23T22:53:08;98966.34;;;22.60;66.46
74621;BME280;64861;47.546;19.254;2023-05-23T22:55:34;98976.19;;;22.60;66.43
74621;BME280;64861;47.546;19.254;2023-05-23T22:58:00;98970.84;;;22.60;66.55
74621;BME280;64861;47.546;19.254;2023-05-23T23:00:26;98975.53;;;22.58;66.28
74621;BME280;64861;47.546;19.254;2023-05-23T23:02:51;98978.19;;;22.58;66.37
74621;BME280;64861;47.546;19.254;2023-05-23T23:05:18;98975.53;;;22.58;66.29
74621;BME280;64861;47.546;19.254;2023-05-23T23:07:44;98983.50;;;22.58;66.42
74621;BME280;64861;47.546;19.254;2023-05-23T23:10:10;98976.53;;;22.57;66.20
74621;BME280;64861;47.546;19.254;2023-05-23T23:12:35;98984.53;;;22.57;66.32
74621;BME280;64861;47.546;19.254;2023-05-23T23:15:01;98981.06;;;22.56;66.38
74621;BME280;64861;47.546;19.254;2023-05-23T23:17:26;98975.72;;;22.56;66.18
74621;BME280;64861;47.546;19.254;2023-05-23T23:19:51;98981.22;;;22.55;66.45
74621;BME280;64861;47.546;19.254;2023-05-23T23:22:19;98969.56;;;22.56;66.27
74621;BME280;64861;47.546;19.254;2023-05-23T23:24:45;98970.56;;;22.55;66.37
74621;BME280;64861;47.546;19.254;2023-05-23T23:27:12;98968.09;;;22.53;66.18
74621;BME280;64861;47.546;19.254;2023-05-23T23:29:37;98962.13;;;22.51;66.25
74621;BME280;64861;47.546;19.254;2023-05-23T23:32:03;98968.09;;;22.53;66.08
74621;BME280;64861;47.546;19.254;2023-05-23T23:34:29;98970.94;;;22.51;66.23
74621;BME280;64861;47.546;19.254;2023-05-23T23:36:54;98973.59;;;22.51;66.26
74621;BME280;64861;47.546;19.254;2023-05-23T23:39:20;98973.59;;;22.51;66.21
74621;BME280;64861;47.546;19.254;2023-05-23T23:41:46;98967.44;;;22.51;66.21
74621;BME280;64861;47.546;19.254;2023-05-23T23:44:13;98977.47;;;22.49;66.00
74621;BME280;64861;47.546;19.254;2023-05-23T23:46:38;98975.78;;;22.48;66.21
74621;BME280;64861;47.546;19.254;2023-05-23T23:49:04;98977.47;;;22.49;66.07
74621;BME280;64861;47.546;19.254;2023-05-23T23:51:29;98977.47;;;22.49;66.14
74621;BME280;64861;47.546;19.254;2023-05-23T23:53:56;98985.47;;;22.49;66.32
74621;BME280;64861;47.546;19.254;2023-05-23T23:56:21;98976.00;;;22.46;66.01
74621;BME280;64861;47.546;19.254;2023-05-23T23:58:49;98979.47;;;22.47;66.04
